createdAt,value
2018-05-12T00:01:52.173Z,99.90
2018-05-12T00:04:19.208Z,99.90
2018-05-12T00:06:45.524Z,99.90
2018-05-12T00:09:11.845Z,99.90
2018-05-12T00:11:38.172Z,99.90
2018-05-12T00:14:04.465Z,99.90
2018-05-12T00:16:31.500Z,99.90
2018-05-12T00:18:59.254Z,99.90
2018-05-12T00:21:26.307Z,99.90
2018-05-12T00:23:52.575Z,99.90
2018-05-12T00:26:18.878Z,99.90
2018-05-12T00:28:45.921Z,99.90
2018-05-12T00:31:12.231Z,99.90
2018-05-12T00:33:38.559Z,99.90
2018-05-12T00:36:04.855Z,99.90
2018-05-12T00:38:31.172Z,99.90
2018-05-12T00:40:57.502Z,99.90
2018-05-12T00:43:24.517Z,99.90
2018-05-12T00:45:50.803Z,99.90
2018-05-12T00:48:17.141Z,99.90
2018-05-12T00:50:43.420Z,99.90
2018-05-12T00:53:11.173Z,99.90
2018-05-12T00:55:37.523Z,99.90
2018-05-12T00:58:04.581Z,99.90
2018-05-12T01:00:30.927Z,99.90
2018-05-12T01:03:01.099Z,99.90
2018-05-12T01:05:27.388Z,99.90
2018-05-12T01:07:53.720Z,99.90
2018-05-12T01:10:20.231Z,99.90
2018-05-12T01:12:47.263Z,99.90
2018-05-12T01:15:13.559Z,99.90
2018-05-12T01:17:39.876Z,99.90
2018-05-12T01:20:06.219Z,99.90
2018-05-12T01:22:32.554Z,99.90
2018-05-12T01:24:58.832Z,99.90
2018-05-12T01:27:25.204Z,99.90
2018-05-12T01:29:51.596Z,99.90
2018-05-12T01:32:17.914Z,99.90
2018-05-12T01:34:44.226Z,99.90
2018-05-12T01:37:10.528Z,99.90
2018-05-12T01:39:36.864Z,99.90
2018-05-12T01:42:03.179Z,99.90
2018-05-12T01:44:29.649Z,99.90
2018-05-12T01:46:55.941Z,99.90
2018-05-12T01:49:22.971Z,99.90
2018-05-12T01:51:49.992Z,99.90
2018-05-12T01:54:17.789Z,99.90
2018-05-12T01:56:44.827Z,99.90
2018-05-12T01:59:11.160Z,99.90
2018-05-12T02:01:37.448Z,99.90
2018-05-12T02:04:03.722Z,99.90
2018-05-12T02:06:30.006Z,99.90
2018-05-12T02:08:56.327Z,99.90
2018-05-12T02:11:22.606Z,99.90
2018-05-12T02:13:48.904Z,99.90
2018-05-12T02:16:15.217Z,99.90
2018-05-12T02:18:41.524Z,99.90
2018-05-12T02:21:08.525Z,99.90
2018-05-12T02:23:34.868Z,99.90
2018-05-12T02:26:01.168Z,99.90
2018-05-12T02:28:27.471Z,99.90
2018-05-12T02:30:54.484Z,99.90
2018-05-12T02:33:21.579Z,99.90
2018-05-12T02:35:47.876Z,99.90
2018-05-12T02:38:14.946Z,99.90
2018-05-12T02:40:41.968Z,99.90
2018-05-12T02:43:09.104Z,99.90
2018-05-12T02:45:35.430Z,99.90
2018-05-12T02:48:01.749Z,99.90
2018-05-12T02:50:28.067Z,99.90
2018-05-12T02:52:54.354Z,99.90
2018-05-12T02:55:20.813Z,99.90
2018-05-12T02:57:47.243Z,99.90
2018-05-12T03:00:17.488Z,99.90
2018-05-12T03:02:43.784Z,99.90
2018-05-12T03:05:10.083Z,99.90
2018-05-12T03:07:36.416Z,99.90
2018-05-12T03:10:03.490Z,99.90
2018-05-12T03:12:29.843Z,99.90
2018-05-12T03:14:56.152Z,99.90
2018-05-12T03:17:23.272Z,99.90
2018-05-12T03:19:49.550Z,99.90
2018-05-12T03:22:16.629Z,99.90
2018-05-12T03:24:43.049Z,99.90
2018-05-12T03:27:09.369Z,99.90
2018-05-12T03:29:35.666Z,99.90
2018-05-12T03:32:02.040Z,99.90
2018-05-12T03:34:28.308Z,99.90
2018-05-12T03:36:54.628Z,99.90
2018-05-12T03:39:20.920Z,99.90
2018-05-12T03:41:48.010Z,99.90
2018-05-12T03:44:14.299Z,99.90
2018-05-12T03:46:41.317Z,99.90
2018-05-12T03:49:07.696Z,99.90
2018-05-12T03:51:33.987Z,99.90
2018-05-12T03:54:00.260Z,99.90
2018-05-12T03:56:26.700Z,99.90
2018-05-12T03:58:52.980Z,99.90
2018-05-12T04:01:19.277Z,99.90
2018-05-12T04:03:49.579Z,99.90
2018-05-12T04:06:28.131Z,99.90
2018-05-12T04:09:06.821Z,99.90
2018-05-12T04:11:45.355Z,99.90
2018-05-12T04:14:11.672Z,99.90
2018-05-12T04:16:38.831Z,99.90
2018-05-12T04:19:06.872Z,99.90
2018-05-12T04:21:33.932Z,99.90
2018-05-12T04:24:00.210Z,99.90
2018-05-12T04:26:28.007Z,99.90
2018-05-12T04:28:55.106Z,99.90
2018-05-12T04:31:21.602Z,99.90
2018-05-12T04:33:47.905Z,99.90
2018-05-12T04:36:14.188Z,99.90
2018-05-12T04:38:40.453Z,99.90
2018-05-12T04:41:06.745Z,99.90
2018-05-12T04:43:33.824Z,99.90
2018-05-12T04:46:00.281Z,99.90
2018-05-12T04:48:26.577Z,99.90
2018-05-12T04:50:52.860Z,99.90
2018-05-12T04:53:19.915Z,99.90
2018-05-12T04:55:46.928Z,99.90
2018-05-12T04:58:13.251Z,99.90
2018-05-12T05:00:39.557Z,99.90
2018-05-12T05:03:05.855Z,99.90
2018-05-12T05:05:32.889Z,99.90
2018-05-12T05:07:59.168Z,99.90
2018-05-12T05:10:25.590Z,99.90
2018-05-12T05:12:51.907Z,99.90
2018-05-12T05:15:18.257Z,99.90
2018-05-12T05:17:44.559Z,99.90
2018-05-12T05:20:11.611Z,99.90
2018-05-12T05:22:37.926Z,99.90
2018-05-12T05:25:04.989Z,99.90
2018-05-12T05:27:32.009Z,99.90
2018-05-12T05:29:58.333Z,99.90
2018-05-12T05:32:24.631Z,99.90
2018-05-12T05:34:50.981Z,99.90
2018-05-12T05:37:21.248Z,99.90
2018-05-12T05:39:47.634Z,99.90
2018-05-12T05:42:14.636Z,99.90
2018-05-12T05:44:41.687Z,99.90
2018-05-12T05:47:08.727Z,99.90
2018-05-12T05:49:34.999Z,99.90
2018-05-12T05:52:01.293Z,99.90
2018-05-12T05:54:27.666Z,99.90
2018-05-12T05:56:53.984Z,99.90
2018-05-12T05:59:20.271Z,99.90
2018-05-12T06:01:46.621Z,99.90
2018-05-12T06:04:14.419Z,99.90
2018-05-12T06:06:40.739Z,99.90
2018-05-12T06:09:07.043Z,99.90
2018-05-12T06:11:34.116Z,99.90
2018-05-12T06:14:01.164Z,99.90
2018-05-12T06:16:28.198Z,99.90
2018-05-12T06:18:55.233Z,99.90
2018-05-12T06:21:21.541Z,99.90
2018-05-12T06:23:47.839Z,99.90
2018-05-12T06:26:14.188Z,99.90
2018-05-12T06:28:40.471Z,99.90
2018-05-12T06:31:07.543Z,99.90
2018-05-12T06:33:34.093Z,99.90
2018-05-12T06:36:00.384Z,99.90
2018-05-12T06:38:27.462Z,99.90
2018-05-12T06:40:53.919Z,99.90
2018-05-12T06:43:20.305Z,99.90
2018-05-12T06:45:47.450Z,99.90
2018-05-12T06:48:14.520Z,99.90
2018-05-12T06:50:40.857Z,99.90
2018-05-12T06:53:07.192Z,99.90
2018-05-12T06:55:33.509Z,99.90
2018-05-12T06:58:00.573Z,99.90
2018-05-12T07:00:26.940Z,99.90
2018-05-12T07:02:53.291Z,99.90
2018-05-12T07:05:19.629Z,99.90
2018-05-12T07:07:46.695Z,99.90
2018-05-12T07:10:13.737Z,99.90
2018-05-12T07:12:40.083Z,99.90
2018-05-12T07:15:06.384Z,98.00
2018-05-12T07:17:32.762Z,98.50
2018-05-12T07:19:59.040Z,96.70
2018-05-12T07:22:25.347Z,97.20
2018-05-12T07:24:51.682Z,97.60
2018-05-12T07:27:18.055Z,96.90
2018-05-12T07:29:44.490Z,96.60
2018-05-12T07:32:10.746Z,94.00
2018-05-12T07:34:37.773Z,92.40
2018-05-12T07:37:04.851Z,92.40
2018-05-12T07:39:31.193Z,92.40
2018-05-12T07:41:57.519Z,92.50
2018-05-12T07:44:23.976Z,93.80
2018-05-12T07:46:50.299Z,90.60
2018-05-12T07:49:16.603Z,88.90
2018-05-12T07:51:42.933Z,86.30
2018-05-12T07:54:09.976Z,82.70
2018-05-12T07:56:37.019Z,78.50
2018-05-12T07:59:04.080Z,79.60
2018-05-12T08:01:31.157Z,73.10
2018-05-12T08:03:57.491Z,73.10
2018-05-12T08:06:23.793Z,70.90
2018-05-12T08:08:50.119Z,71.20
2018-05-12T08:11:23.153Z,66.30
2018-05-12T08:13:49.430Z,66.30
2018-05-12T08:16:15.779Z,63.00
2018-05-12T08:18:42.128Z,68.10
2018-05-12T08:21:08.425Z,62.10
2018-05-12T08:23:34.753Z,59.50
2018-05-12T08:26:01.043Z,56.40
2018-05-12T08:28:27.373Z,56.70
2018-05-12T08:30:53.688Z,60.90
2018-05-12T08:33:20.116Z,53.90
2018-05-12T08:35:46.569Z,52.60
2018-05-12T08:38:12.896Z,61.10
2018-05-12T08:40:39.192Z,49.20
2018-05-12T08:43:06.211Z,47.60
2018-05-12T08:45:33.296Z,48.30
2018-05-12T08:48:00.348Z,47.70
2018-05-12T08:50:26.661Z,47.70
2018-05-12T08:52:53.714Z,48.10
2018-05-12T08:55:20.809Z,52.50
2018-05-12T08:57:47.087Z,52.30
2018-05-12T09:00:13.473Z,47.80
2018-05-12T09:02:39.976Z,50.80
2018-05-12T09:05:06.999Z,46.60
2018-05-12T09:07:33.344Z,46.50
2018-05-12T09:10:00.405Z,39.60
2018-05-12T09:12:26.699Z,39.50
2018-05-12T09:14:53.772Z,39.70
2018-05-12T09:17:20.100Z,39.60
2018-05-12T09:19:46.424Z,41.80
2018-05-12T09:22:13.494Z,38.90
2018-05-12T09:24:43.138Z,41.50
2018-05-12T09:27:09.844Z,41.40
2018-05-12T09:29:36.349Z,38.90
2018-05-12T09:32:06.686Z,40.80
2018-05-12T09:34:33.324Z,40.80
2018-05-12T09:36:59.670Z,43.00
2018-05-12T09:39:26.719Z,44.80
2018-05-12T09:41:53.749Z,43.30
2018-05-12T09:44:31.167Z,43.20
2018-05-12T09:46:57.449Z,46.30
2018-05-12T09:49:23.738Z,42.60
2018-05-12T09:51:50.044Z,40.70
2018-05-12T09:54:16.299Z,44.00
2018-05-12T09:56:42.660Z,37.80
2018-05-12T09:59:08.926Z,40.10
2018-05-12T10:01:51.548Z,35.70
2018-05-12T10:07:23.552Z,35.60
2018-05-12T10:09:50.583Z,38.70
2018-05-12T10:12:17.635Z,31.00
2018-05-12T10:14:43.923Z,30.90
2018-05-12T10:17:10.248Z,32.10
2018-05-12T10:19:36.508Z,37.20
2018-05-12T10:22:02.994Z,35.40
2018-05-12T10:24:29.317Z,36.00
2018-05-12T10:26:55.616Z,35.50
2018-05-12T10:29:23.531Z,37.70
2018-05-12T10:31:49.909Z,37.70
2018-05-12T10:34:27.495Z,39.00
2018-05-12T10:36:54.907Z,37.70
2018-05-12T10:39:26.353Z,37.30
2018-05-12T10:42:00.575Z,38.30
2018-05-12T10:44:27.116Z,34.60
2018-05-12T10:46:53.407Z,36.60
2018-05-12T10:49:20.445Z,37.00
2018-05-12T10:51:46.762Z,37.00
2018-05-12T10:54:13.040Z,35.50
2018-05-12T10:56:40.113Z,34.80
2018-05-12T10:59:06.458Z,34.80
2018-05-12T11:01:34.810Z,33.80
2018-05-12T11:04:01.082Z,31.40
2018-05-12T11:06:27.909Z,34.50
2018-05-12T11:09:08.863Z,35.10
2018-05-12T11:11:37.330Z,31.80
2018-05-12T11:14:03.623Z,34.40
2018-05-12T11:16:29.940Z,34.40
2018-05-12T11:18:56.251Z,33.40
2018-05-12T11:21:22.568Z,33.50
2018-05-12T11:23:48.871Z,33.00
2018-05-12T11:26:15.936Z,34.30
2018-05-12T11:28:42.287Z,34.30
2018-05-12T11:31:08.575Z,35.20
2018-05-12T11:33:35.633Z,34.00
2018-05-12T11:36:02.680Z,30.20
2018-05-12T11:38:29.771Z,31.60
2018-05-12T11:40:56.089Z,31.50
2018-05-12T11:43:23.138Z,34.20
2018-05-12T11:45:49.425Z,34.30
2018-05-12T11:48:15.715Z,30.20
2018-05-12T11:50:42.003Z,31.10
2018-05-12T11:53:09.052Z,31.80
2018-05-12T11:55:36.103Z,33.80
2018-05-12T11:58:07.304Z,33.70
2018-05-12T12:00:36.379Z,35.10
2018-05-12T12:03:02.676Z,34.70
2018-05-12T12:05:39.237Z,33.00
2018-05-12T12:08:05.530Z,32.50
2018-05-12T12:10:31.993Z,34.30
2018-05-12T12:12:58.305Z,32.00
2018-05-12T12:15:24.640Z,33.50
2018-05-12T12:17:51.733Z,29.70
2018-05-12T12:20:18.031Z,29.70
2018-05-12T12:22:48.259Z,29.80
2018-05-12T12:28:06.215Z,31.20
2018-05-12T12:30:50.740Z,31.70
2018-05-12T12:33:25.305Z,31.60
2018-05-12T12:35:51.659Z,33.00
2018-05-12T12:38:29.343Z,35.40
2018-05-12T12:40:55.622Z,35.70
2018-05-12T12:43:21.913Z,32.30
2018-05-12T12:45:55.180Z,32.80
2018-05-12T12:48:22.194Z,33.90
2018-05-12T12:50:59.752Z,33.80
2018-05-12T12:53:31.175Z,34.00
2018-05-12T12:56:09.412Z,30.90
2018-05-12T12:58:44.011Z,30.90
2018-05-12T13:01:11.035Z,35.50
2018-05-12T13:03:37.346Z,35.50
2018-05-12T13:06:03.739Z,32.30
2018-05-12T13:08:30.003Z,32.20
2018-05-12T13:10:56.301Z,32.60
2018-05-12T13:13:31.884Z,32.60
2018-05-12T13:16:11.048Z,32.10
2018-05-12T13:18:46.662Z,32.10
2018-05-12T13:21:31.959Z,31.60
2018-05-12T13:23:58.294Z,31.60
2018-05-12T13:26:24.651Z,30.20
2018-05-12T13:28:51.172Z,31.10
2018-05-12T13:31:17.532Z,30.80
2018-05-12T13:33:43.857Z,30.00
2018-05-12T13:36:10.135Z,31.70
2018-05-12T13:38:36.442Z,34.10
2018-05-12T13:41:02.740Z,30.10
2018-05-12T13:43:29.095Z,29.80
2018-05-12T13:48:50.083Z,29.40
2018-05-12T13:51:18.235Z,32.30
2018-05-12T13:53:44.665Z,32.20
2018-05-12T13:56:15.958Z,30.50
2018-05-12T13:58:50.261Z,31.40
2018-05-12T14:01:24.561Z,30.80
2018-05-12T14:04:03.051Z,29.30
2018-05-12T14:06:29.606Z,32.20
2018-05-12T14:09:03.877Z,29.50
2018-05-12T14:11:30.172Z,29.50
2018-05-12T14:13:57.233Z,30.50
2018-05-12T14:16:23.538Z,30.50
2018-05-12T14:18:49.817Z,32.30
2018-05-12T14:21:16.106Z,29.90
2018-05-12T14:23:43.131Z,31.10
2018-05-12T14:26:09.396Z,31.10
2018-05-12T14:28:35.672Z,30.30
2018-05-12T14:31:02.992Z,30.30
2018-05-12T14:33:32.341Z,30.30
2018-05-12T14:36:02.694Z,30.80
2018-05-12T14:38:29.099Z,32.70
2018-05-12T14:40:55.411Z,31.30
2018-05-12T14:43:21.763Z,32.40
2018-05-12T14:45:48.052Z,30.80
2018-05-12T14:48:14.426Z,31.50
2018-05-12T14:50:40.666Z,33.20
2018-05-12T14:53:07.717Z,33.20
2018-05-12T14:55:34.051Z,33.20
2018-05-12T14:58:00.348Z,34.10
2018-05-12T15:00:26.645Z,34.70
2018-05-12T15:02:52.948Z,34.90
2018-05-12T15:05:19.239Z,34.50
2018-05-12T15:07:45.531Z,34.50
2018-05-12T15:10:11.917Z,32.50
2018-05-12T15:12:38.228Z,31.20
2018-05-12T15:15:04.551Z,30.90
2018-05-12T15:17:30.852Z,32.60
2018-05-12T15:19:57.177Z,32.10
2018-05-12T15:22:23.502Z,32.50
2018-05-12T15:24:49.807Z,34.00
2018-05-12T15:27:16.111Z,33.80
2018-05-12T15:29:42.395Z,34.60
2018-05-12T15:32:09.590Z,36.70
2018-05-12T15:34:35.893Z,36.60
2018-05-12T15:37:02.233Z,36.80
2018-05-12T15:39:28.667Z,35.40
2018-05-12T15:41:54.989Z,34.60
2018-05-12T15:44:21.280Z,33.90
2018-05-12T15:46:47.749Z,34.80
2018-05-12T15:49:14.082Z,35.30
2018-05-12T15:51:40.414Z,34.50
2018-05-12T15:54:06.694Z,36.20
2018-05-12T15:56:33.123Z,36.90
2018-05-12T15:58:59.440Z,37.70
2018-05-12T16:01:25.706Z,38.10
2018-05-12T16:03:52.025Z,39.10
2018-05-12T16:06:18.315Z,40.00
2018-05-12T16:08:44.848Z,38.50
2018-05-12T16:11:11.184Z,39.20
2018-05-12T16:13:37.517Z,41.40
2018-05-12T16:16:03.835Z,39.90
2018-05-12T16:18:30.452Z,40.80
2018-05-12T16:21:08.989Z,39.40
2018-05-12T16:23:44.624Z,39.60
2018-05-12T16:26:11.968Z,40.40
2018-05-12T16:31:31.898Z,40.40
2018-05-12T16:33:58.218Z,40.60
2018-05-12T16:36:24.537Z,39.60
2018-05-12T16:38:50.897Z,39.90
2018-05-12T16:41:17.210Z,40.60
2018-05-12T16:43:43.668Z,41.00
2018-05-12T16:46:10.024Z,41.60
2018-05-12T16:48:40.256Z,43.10
2018-05-12T16:51:07.566Z,43.20
2018-05-12T16:53:33.748Z,43.10
2018-05-12T16:56:00.844Z,42.90
2018-05-12T16:58:28.245Z,42.80
2018-05-12T17:00:55.781Z,42.90
2018-05-12T17:03:24.192Z,43.70
2018-05-12T17:05:51.298Z,43.50
2018-05-12T17:08:17.736Z,43.40
2018-05-12T17:10:44.097Z,44.50
2018-05-12T17:13:11.260Z,45.20
2018-05-12T17:15:37.669Z,45.20
2018-05-12T17:18:04.067Z,45.70
2018-05-12T17:20:30.619Z,45.00
2018-05-12T17:22:56.975Z,45.50
2018-05-12T17:25:23.368Z,45.50
2018-05-12T17:27:49.735Z,46.00
2018-05-12T17:30:16.132Z,47.20
2018-05-12T17:32:42.489Z,47.20
2018-05-12T17:35:08.875Z,47.00
2018-05-12T17:37:35.281Z,48.20
2018-05-12T17:40:01.715Z,48.10
2018-05-12T17:42:28.062Z,48.40
2018-05-12T17:44:55.400Z,49.40
2018-05-12T17:47:22.544Z,48.10
2018-05-12T17:49:48.886Z,48.10
2018-05-12T17:52:15.293Z,47.90
2018-05-12T17:54:41.604Z,48.70
2018-05-12T17:57:07.931Z,49.30
2018-05-12T17:59:37.224Z,49.80
2018-05-12T18:02:04.448Z,50.00
2018-05-12T18:04:30.963Z,49.90
2018-05-12T18:06:57.467Z,50.70
2018-05-12T18:09:23.830Z,51.50
2018-05-12T18:11:50.987Z,51.80
2018-05-12T18:14:17.391Z,51.70
2018-05-12T18:16:43.752Z,52.60
2018-05-12T18:19:10.089Z,51.70
2018-05-12T18:21:37.146Z,53.30
2018-05-12T18:24:04.256Z,54.50
2018-05-12T18:26:30.607Z,54.50
2018-05-12T18:28:56.991Z,54.70
2018-05-12T18:31:24.076Z,55.20
2018-05-12T18:33:50.424Z,55.20
2018-05-12T18:36:16.800Z,55.40
2018-05-12T18:38:43.893Z,55.70
2018-05-12T18:41:10.305Z,55.70
2018-05-12T18:43:36.631Z,55.70
2018-05-12T18:46:07.024Z,55.80
2018-05-12T18:48:34.145Z,56.50
2018-05-12T18:51:00.501Z,56.40
2018-05-12T18:53:26.943Z,56.70
2018-05-12T18:55:54.028Z,58.20
2018-05-12T18:58:20.321Z,58.10
2018-05-12T19:00:46.635Z,58.90
2018-05-12T19:03:13.205Z,59.60
2018-05-12T19:05:39.556Z,59.90
2018-05-12T19:08:05.864Z,60.50
2018-05-12T19:10:32.953Z,61.90
2018-05-12T19:12:59.293Z,61.90
2018-05-12T19:15:25.704Z,62.50
2018-05-12T19:17:52.793Z,63.50
2018-05-12T19:20:19.136Z,63.50
2018-05-12T19:22:45.437Z,64.00
2018-05-12T19:25:11.750Z,64.60
2018-05-12T19:27:38.078Z,65.30
2018-05-12T19:30:04.392Z,65.80
2018-05-12T19:32:30.768Z,66.30
2018-05-12T19:34:57.114Z,67.00
2018-05-12T19:37:23.470Z,67.60
2018-05-12T19:39:50.550Z,70.10
2018-05-12T19:42:18.548Z,70.00
2018-05-12T19:44:44.851Z,70.40
2018-05-12T19:47:11.208Z,71.60
2018-05-12T19:49:38.568Z,72.40
2018-05-12T19:52:04.924Z,73.50
2018-05-12T19:54:31.283Z,74.20
2018-05-12T19:56:57.621Z,75.30
2018-05-12T19:59:23.929Z,76.20
2018-05-12T20:01:50.229Z,76.70
2018-05-12T20:04:16.499Z,77.90
2018-05-12T20:06:42.826Z,78.90
2018-05-12T20:09:09.161Z,79.00
2018-05-12T20:11:36.247Z,81.40
2018-05-12T20:14:02.582Z,81.40
2018-05-12T20:16:28.888Z,82.00
2018-05-12T20:18:56.064Z,84.10
2018-05-12T20:21:22.403Z,84.00
2018-05-12T20:23:48.737Z,85.10
2018-05-12T20:26:15.109Z,85.70
2018-05-12T20:28:41.437Z,86.60
2018-05-12T20:31:07.834Z,87.30
2018-05-12T20:33:34.343Z,87.80
2018-05-12T20:36:01.409Z,89.60
2018-05-12T20:38:27.743Z,89.40
2018-05-12T20:40:54.101Z,90.10
2018-05-12T20:43:20.449Z,90.60
2018-05-12T20:45:46.792Z,91.00
2018-05-12T20:48:13.885Z,91.70
2018-05-12T20:50:40.968Z,91.80
2018-05-12T20:53:07.281Z,91.70
2018-05-12T20:55:33.634Z,92.00
2018-05-12T20:57:59.960Z,92.20
2018-05-12T21:00:26.246Z,92.30
2018-05-12T21:02:52.593Z,92.50
2018-05-12T21:05:18.921Z,92.80
2018-05-12T21:07:45.937Z,93.70
2018-05-12T21:10:12.990Z,93.60
2018-05-12T21:12:39.355Z,93.60
2018-05-12T21:15:05.699Z,93.90
2018-05-12T21:17:32.048Z,94.60
2018-05-12T21:19:58.395Z,94.70
2018-05-12T21:22:24.704Z,94.90
2018-05-12T21:25:07.794Z,94.90
2018-05-12T21:27:34.133Z,95.30
2018-05-12T21:30:01.295Z,95.80
2018-05-12T21:32:27.637Z,95.70
2018-05-12T21:34:53.985Z,95.80
2018-05-12T21:37:20.327Z,95.80
2018-05-12T21:39:46.623Z,95.70
2018-05-12T21:42:12.940Z,95.90
2018-05-12T21:44:39.251Z,96.10
2018-05-12T21:47:05.595Z,96.10
2018-05-12T21:49:32.660Z,96.30
2018-05-12T21:51:58.982Z,96.30
2018-05-12T21:54:26.055Z,96.30
2018-05-12T21:56:52.377Z,96.30
2018-05-12T21:59:18.714Z,96.50
2018-05-12T22:01:44.990Z,96.60
2018-05-12T22:04:12.780Z,96.70
2018-05-12T22:06:39.097Z,96.70
2018-05-12T22:09:05.710Z,96.90
2018-05-12T22:11:32.063Z,96.80
2018-05-12T22:13:59.113Z,97.30
2018-05-12T22:16:26.157Z,97.20
2018-05-12T22:18:52.469Z,97.20
2018-05-12T22:21:19.780Z,97.50
2018-05-12T22:23:46.109Z,97.90
2018-05-12T22:26:12.450Z,97.90
2018-05-12T22:28:39.469Z,98.00
2018-05-12T22:31:06.571Z,98.10
2018-05-12T22:33:36.807Z,98.10
2018-05-12T22:36:03.515Z,98.30
2018-05-12T22:38:29.815Z,98.30
2018-05-12T22:40:56.140Z,98.50
2018-05-12T22:43:22.431Z,98.80
2018-05-12T22:45:48.789Z,99.00
2018-05-12T22:48:15.104Z,98.90
2018-05-12T22:50:41.458Z,99.10
2018-05-12T22:53:07.767Z,99.00
2018-05-12T22:55:34.091Z,99.20
2018-05-12T22:58:04.349Z,99.30
2018-05-12T23:00:30.716Z,99.30
2018-05-12T23:02:57.040Z,99.50
2018-05-12T23:05:24.048Z,99.70
2018-05-12T23:07:51.381Z,99.70
2018-05-12T23:10:17.672Z,99.80
2018-05-12T23:12:44.713Z,99.70
2018-05-12T23:15:11.753Z,99.90
2018-05-12T23:17:38.094Z,99.70
2018-05-12T23:20:04.399Z,99.90
2018-05-12T23:22:30.716Z,99.90
2018-05-12T23:24:57.031Z,99.80
2018-05-12T23:27:23.316Z,99.90
2018-05-12T23:29:51.076Z,99.90
2018-05-12T23:32:18.159Z,99.90
2018-05-12T23:34:44.519Z,99.90
2018-05-12T23:37:10.850Z,99.90
2018-05-12T23:39:37.179Z,99.90
2018-05-12T23:42:03.529Z,99.90
2018-05-12T23:44:29.828Z,99.90
2018-05-12T23:46:56.118Z,99.90
2018-05-12T23:49:22.433Z,99.90
2018-05-12T23:51:48.734Z,99.90
2018-05-12T23:54:15.031Z,99.90
2018-05-12T23:56:41.324Z,99.90
2018-05-12T23:59:07.605Z,99.90
